createdAt,value
2019-04-05T00:00:22.770Z,12.70
2019-04-05T00:02:52.380Z,12.70
2019-04-05T00:05:21.714Z,12.70
2019-04-05T00:07:51.305Z,12.60
2019-04-05T00:10:20.635Z,12.60
2019-04-05T00:12:50.116Z,12.60
2019-04-05T00:15:20.543Z,12.60
2019-04-05T00:17:49.855Z,12.60
2019-04-05T00:20:19.184Z,12.50
2019-04-05T00:22:48.599Z,12.50
2019-04-05T00:25:18.099Z,12.50
2019-04-05T00:27:47.526Z,12.40
2019-04-05T00:30:17.019Z,12.40
2019-04-05T00:32:46.413Z,12.40
2019-04-05T00:35:15.823Z,12.40
2019-04-05T00:37:45.288Z,12.40
2019-04-05T00:40:15.021Z,12.40
2019-04-05T00:42:44.414Z,12.30
2019-04-05T00:45:13.925Z,12.30
2019-04-05T00:47:43.305Z,12.30
2019-04-05T00:50:13.013Z,12.30
2019-04-05T00:52:42.408Z,12.20
2019-04-05T00:55:12.124Z,12.20
2019-04-05T00:57:41.523Z,12.20
2019-04-05T01:00:11.063Z,12.20
2019-04-05T01:02:40.419Z,12.20
2019-04-05T01:05:10.396Z,12.20
2019-04-05T01:07:40.135Z,12.20
2019-04-05T01:10:10.083Z,12.10
2019-04-05T01:12:40.770Z,12.10
2019-04-05T01:15:12.027Z,12.10
2019-04-05T01:17:41.541Z,12.10
2019-04-05T01:20:11.386Z,12.10
2019-04-05T01:22:42.732Z,12.00
2019-04-05T01:25:13.021Z,12.00
2019-04-05T01:27:43.012Z,12.10
2019-04-05T01:30:14.437Z,12.10
2019-04-05T01:32:43.879Z,12.10
2019-04-05T01:35:13.184Z,12.00
2019-04-05T01:37:42.874Z,12.00
2019-04-05T01:40:12.538Z,12.00
2019-04-05T01:42:42.481Z,12.00
2019-04-05T01:45:12.691Z,12.00
2019-04-05T01:47:42.037Z,12.00
2019-04-05T01:50:11.938Z,12.00
2019-04-05T01:52:42.245Z,11.90
2019-04-05T01:55:11.825Z,11.90
2019-04-05T01:57:41.150Z,11.90
2019-04-05T02:00:11.792Z,11.90
2019-04-05T02:02:41.838Z,11.90
2019-04-05T02:05:11.364Z,11.90
2019-04-05T02:07:41.571Z,11.90
2019-04-05T02:10:12.697Z,11.90
2019-04-05T02:12:42.151Z,11.90
2019-04-05T02:15:22.192Z,11.90
2019-04-05T02:17:51.568Z,11.90
2019-04-05T02:20:20.959Z,11.80
2019-04-05T02:22:50.439Z,11.90
2019-04-05T02:25:19.805Z,11.80
2019-04-05T02:27:49.203Z,11.80
2019-04-05T02:30:19.090Z,11.80
2019-04-05T02:32:48.720Z,11.90
2019-04-05T02:35:18.084Z,11.80
2019-04-05T02:37:47.795Z,11.80
2019-04-05T02:40:18.184Z,11.80
2019-04-05T02:42:50.397Z,11.80
2019-04-05T02:45:20.622Z,11.80
2019-04-05T02:47:53.074Z,11.80
2019-04-05T02:50:25.419Z,11.80
2019-04-05T02:52:57.977Z,11.80
2019-04-05T02:55:29.277Z,11.70
2019-04-05T02:58:01.309Z,11.80
2019-04-05T03:00:32.619Z,11.90
2019-04-05T03:03:03.547Z,11.80
2019-04-05T03:05:33.214Z,11.70
2019-04-05T03:08:02.974Z,11.80
2019-04-05T03:10:55.315Z,11.70
2019-04-05T03:13:27.382Z,11.70
2019-04-05T03:15:59.840Z,11.70
2019-04-05T03:18:31.147Z,11.70
2019-04-05T03:21:03.921Z,11.70
2019-04-05T03:23:36.349Z,11.70
2019-04-05T03:26:07.770Z,11.70
2019-04-05T03:28:40.489Z,11.70
2019-04-05T03:31:10.424Z,11.70
2019-04-05T03:33:39.953Z,11.70
2019-04-05T03:36:09.641Z,11.70
2019-04-05T03:38:39.577Z,11.70
2019-04-05T03:41:10.457Z,11.70
2019-04-05T03:43:40.995Z,11.70
2019-04-05T03:46:11.946Z,11.70
2019-04-05T03:48:41.675Z,11.70
2019-04-05T03:51:12.999Z,11.70
2019-04-05T03:53:43.676Z,11.70
2019-04-05T03:56:37.741Z,11.70
2019-04-05T03:59:06.726Z,11.70
2019-04-05T04:01:37.730Z,11.70
2019-04-05T04:04:08.277Z,11.60
2019-04-05T04:06:37.700Z,11.60
2019-04-05T04:09:07.740Z,11.60
2019-04-05T04:11:38.102Z,11.60
2019-04-05T04:14:07.801Z,11.60
2019-04-05T04:16:37.610Z,11.60
2019-04-05T04:19:07.132Z,11.60
2019-04-05T04:21:53.657Z,11.60
2019-04-05T04:24:24.290Z,11.60
2019-04-05T04:26:53.953Z,11.60
2019-04-05T04:29:23.689Z,11.60
2019-04-05T04:31:53.400Z,11.60
2019-04-05T04:34:23.418Z,11.60
2019-04-05T04:36:53.047Z,11.60
2019-04-05T04:39:22.801Z,11.60
2019-04-05T04:41:52.864Z,11.60
2019-04-05T04:44:22.865Z,11.60
2019-04-05T04:46:52.332Z,11.70
2019-04-05T04:49:22.181Z,11.70
2019-04-05T04:51:51.687Z,11.70
2019-04-05T04:54:22.464Z,11.70
2019-04-05T04:56:52.393Z,11.80
2019-04-05T04:59:21.755Z,11.70
2019-04-05T05:01:52.436Z,11.70
2019-04-05T05:04:21.881Z,11.70
2019-04-05T05:06:51.703Z,11.80
2019-04-05T05:09:21.716Z,11.70
2019-04-05T05:11:52.149Z,11.80
2019-04-05T05:14:22.836Z,11.70
2019-04-05T05:16:52.215Z,11.70
2019-04-05T05:19:21.740Z,11.70
2019-04-05T05:21:51.458Z,11.70
2019-04-05T05:24:21.157Z,11.70
2019-04-05T05:26:50.908Z,11.70
2019-04-05T05:29:20.704Z,11.70
2019-04-05T05:31:51.163Z,11.70
2019-04-05T05:34:23.326Z,11.70
2019-04-05T05:36:53.474Z,11.60
2019-04-05T05:39:23.445Z,11.60
2019-04-05T05:41:53.688Z,11.60
2019-04-05T05:44:24.314Z,11.50
2019-04-05T05:46:53.793Z,11.40
2019-04-05T05:49:23.251Z,11.40
2019-04-05T05:51:53.406Z,11.40
2019-04-05T05:54:22.937Z,11.40
2019-04-05T05:56:52.396Z,11.40
2019-04-05T05:59:21.727Z,11.40
2019-04-05T06:01:51.129Z,11.40
2019-04-05T06:04:20.522Z,11.40
2019-04-05T06:06:49.908Z,11.40
2019-04-05T06:09:19.282Z,11.40
2019-04-05T06:11:48.656Z,11.30
2019-04-05T06:14:19.578Z,11.40
2019-04-05T06:16:48.961Z,11.30
2019-04-05T06:19:18.373Z,11.30
2019-04-05T06:21:47.818Z,11.30
2019-04-05T06:24:18.345Z,11.30
2019-04-05T06:26:49.324Z,11.30
2019-04-05T06:29:20.463Z,11.30
2019-04-05T06:31:51.104Z,11.20
2019-04-05T06:34:20.547Z,11.30
2019-04-05T06:36:51.312Z,11.30
2019-04-05T06:39:23.598Z,11.30
2019-04-05T06:41:52.989Z,11.30
2019-04-05T06:44:23.615Z,11.30
2019-04-05T06:46:54.446Z,11.30
2019-04-05T06:49:23.857Z,11.30
2019-04-05T06:51:53.332Z,11.30
2019-04-05T06:54:22.793Z,11.30
2019-04-05T06:56:52.215Z,11.30
2019-04-05T06:59:21.574Z,11.30
2019-04-05T07:01:53.390Z,11.30
2019-04-05T07:04:22.780Z,11.30
2019-04-05T07:07:11.262Z,11.30
2019-04-05T07:09:40.735Z,11.30
2019-04-05T07:12:10.198Z,11.30
2019-04-05T07:14:40.104Z,11.40
2019-04-05T07:17:10.664Z,11.30
2019-04-05T07:19:40.063Z,11.30
2019-04-05T07:22:10.624Z,11.30
2019-04-05T07:24:40.017Z,11.30
2019-04-05T07:27:09.432Z,11.40
2019-04-05T07:29:38.900Z,11.30
2019-04-05T07:32:09.987Z,11.30
2019-04-05T07:34:39.420Z,11.30
2019-04-05T07:37:09.066Z,11.30
2019-04-05T07:39:38.575Z,11.30
2019-04-05T07:42:08.169Z,11.20
2019-04-05T07:44:37.640Z,11.20
2019-04-05T07:47:08.249Z,11.20
2019-04-05T07:49:37.703Z,11.20
2019-04-05T07:52:07.269Z,11.20
2019-04-05T07:54:36.673Z,11.30
2019-04-05T07:57:06.123Z,11.30
2019-04-05T07:59:35.548Z,11.30
2019-04-05T08:02:04.922Z,11.30
2019-04-05T08:04:34.385Z,11.30
2019-04-05T08:07:05.448Z,11.30
2019-04-05T08:09:37.480Z,11.40
2019-04-05T08:12:07.498Z,11.40
2019-04-05T08:14:39.777Z,11.40
2019-04-05T08:17:09.569Z,11.40
2019-04-05T08:19:38.976Z,11.40
2019-04-05T08:22:08.543Z,11.40
2019-04-05T08:24:38.038Z,11.40
2019-04-05T08:27:07.435Z,11.50
2019-04-05T08:29:37.045Z,11.50
2019-04-05T08:32:14.293Z,11.50
2019-04-05T08:34:37.596Z,11.60
2019-04-05T08:37:08.466Z,11.60
2019-04-05T08:39:37.930Z,11.60
2019-04-05T08:42:07.359Z,11.70
2019-04-05T08:44:36.777Z,11.70
2019-04-05T08:47:06.500Z,11.70
2019-04-05T08:49:35.875Z,11.70
2019-04-05T08:52:06.601Z,11.70
2019-04-05T08:54:36.870Z,11.70
2019-04-05T08:57:06.844Z,11.60
2019-04-05T08:59:37.364Z,11.60
2019-04-05T09:02:08.429Z,11.60
2019-04-05T09:04:37.879Z,11.60
2019-04-05T09:07:07.265Z,11.60
2019-04-05T09:09:36.983Z,11.60
2019-04-05T09:12:06.390Z,11.60
2019-04-05T09:14:38.650Z,11.60
2019-04-05T09:17:08.096Z,11.60
2019-04-05T09:19:37.858Z,11.70
2019-04-05T09:22:07.459Z,11.70
2019-04-05T09:24:36.793Z,11.70
2019-04-05T09:27:06.240Z,11.70
2019-04-05T09:29:35.710Z,11.70
2019-04-05T09:32:05.142Z,11.80
2019-04-05T09:34:34.577Z,11.70
2019-04-05T09:37:04.335Z,11.70
2019-04-05T09:39:33.811Z,11.70
2019-04-05T09:42:03.265Z,11.80
2019-04-05T09:44:51.714Z,11.80
2019-04-05T09:47:21.239Z,11.90
2019-04-05T09:49:51.884Z,11.90
2019-04-05T09:52:21.256Z,11.90
2019-04-05T09:54:50.613Z,11.90
2019-04-05T09:57:20.145Z,12.00
2019-04-05T09:59:49.545Z,12.10
2019-04-05T10:02:18.943Z,12.20
2019-04-05T10:04:49.650Z,12.20
2019-04-05T10:07:19.160Z,12.30
2019-04-05T10:09:50.391Z,12.40
2019-04-05T10:12:19.698Z,12.30
2019-04-05T10:14:49.391Z,12.50
2019-04-05T10:17:37.888Z,12.60
2019-04-05T10:20:08.451Z,12.60
2019-04-05T10:22:37.808Z,12.80
2019-04-05T10:25:07.406Z,12.90
2019-04-05T10:27:36.805Z,12.90
2019-04-05T10:30:08.796Z,13.00
2019-04-05T10:32:41.321Z,13.10
2019-04-05T10:35:10.638Z,13.20
2019-04-05T10:37:39.983Z,13.20
2019-04-05T10:40:10.742Z,13.30
2019-04-05T10:42:40.101Z,13.30
2019-04-05T10:45:10.622Z,13.30
2019-04-05T10:47:40.155Z,13.30
2019-04-05T10:50:11.249Z,13.30
2019-04-05T10:52:41.159Z,13.30
2019-04-05T10:55:11.291Z,13.20
2019-04-05T10:57:40.676Z,13.20
2019-04-05T11:00:13.933Z,13.10
2019-04-05T11:02:43.337Z,13.10
2019-04-05T11:05:13.178Z,13.00
2019-04-05T11:07:42.641Z,13.00
2019-04-05T11:10:13.913Z,13.00
2019-04-05T11:12:43.349Z,13.10
2019-04-05T11:15:15.119Z,13.10
2019-04-05T11:17:44.192Z,13.10
2019-04-05T11:20:21.248Z,13.10
2019-04-05T11:22:46.791Z,13.20
2019-04-05T11:25:20.425Z,13.30
2019-04-05T11:27:48.523Z,13.40
2019-04-05T11:30:40.778Z,13.50
2019-04-05T11:33:10.214Z,13.40
2019-04-05T11:35:39.627Z,13.50
2019-04-05T11:38:09.117Z,13.50
2019-04-05T11:40:38.806Z,13.40
2019-04-05T11:43:08.234Z,13.40
2019-04-05T11:45:38.106Z,13.40
2019-04-05T11:48:07.489Z,13.40
2019-04-05T11:50:36.816Z,13.30
2019-04-05T11:53:06.234Z,13.20
2019-04-05T11:55:35.661Z,13.20
2019-04-05T11:58:05.063Z,13.20
2019-04-05T12:01:11.936Z,13.20
2019-04-05T12:03:41.758Z,13.20
2019-04-05T12:06:11.366Z,13.20
2019-04-05T12:08:41.942Z,13.20
2019-04-05T12:11:12.523Z,13.10
2019-04-05T12:13:42.078Z,13.00
2019-04-05T12:16:11.570Z,13.00
2019-04-05T12:18:41.093Z,13.00
2019-04-05T12:21:10.563Z,12.90
2019-04-05T12:23:40.174Z,12.90
2019-04-05T12:26:09.561Z,13.00
2019-04-05T12:28:38.952Z,13.00
2019-04-05T12:31:08.356Z,13.00
2019-04-05T12:33:39.303Z,13.10
2019-04-05T12:36:10.865Z,13.20
2019-04-05T12:38:42.179Z,13.20
2019-04-05T12:41:11.757Z,13.30
2019-04-05T12:43:43.998Z,13.30
2019-04-05T12:46:15.042Z,13.40
2019-04-05T12:48:45.524Z,13.40
2019-04-05T12:51:15.694Z,13.40
2019-04-05T12:53:45.688Z,13.50
2019-04-05T12:56:15.162Z,13.50
2019-04-05T12:58:44.495Z,13.50
2019-04-05T13:01:13.894Z,13.50
2019-04-05T13:03:43.340Z,13.50
2019-04-05T13:06:12.865Z,13.40
2019-04-05T13:08:42.290Z,13.40
2019-04-05T13:11:12.152Z,13.40
2019-04-05T13:13:41.572Z,13.40
2019-04-05T13:16:11.032Z,13.40
2019-04-05T13:18:40.570Z,13.50
2019-04-05T13:21:15.016Z,13.50
2019-04-05T13:23:41.468Z,13.60
2019-04-05T13:26:12.359Z,13.60
2019-04-05T13:28:41.956Z,13.60
2019-04-05T13:31:11.397Z,13.70
2019-04-05T13:33:41.274Z,13.70
2019-04-05T13:36:10.704Z,13.70
2019-04-05T13:38:40.130Z,13.80
2019-04-05T13:41:09.514Z,13.70
2019-04-05T13:43:38.963Z,13.70
2019-04-05T13:46:21.045Z,13.80
2019-04-05T13:48:40.156Z,13.80
2019-04-05T13:51:12.165Z,13.90
2019-04-05T13:53:41.305Z,13.90
2019-04-05T13:56:11.121Z,13.90
2019-04-05T13:58:40.949Z,14.00
2019-04-05T14:01:10.305Z,14.10
2019-04-05T14:03:41.046Z,14.10
2019-04-05T14:06:10.823Z,14.10
2019-04-05T14:08:41.874Z,14.20
2019-04-05T14:11:11.520Z,14.20
2019-04-05T14:13:42.925Z,14.20
2019-04-05T14:16:13.014Z,14.30
2019-04-05T14:18:45.716Z,14.30
2019-04-05T14:21:13.666Z,14.30
2019-04-05T14:23:43.493Z,14.30
2019-04-05T14:26:13.198Z,14.40
2019-04-05T14:28:42.536Z,14.40
2019-04-05T14:31:11.942Z,14.40
2019-04-05T14:33:41.443Z,14.40
2019-04-05T14:36:10.792Z,14.40
2019-04-05T14:38:40.215Z,14.50
2019-04-05T14:41:09.635Z,14.50
2019-04-05T14:43:38.991Z,14.50
2019-04-05T14:46:08.381Z,14.50
2019-04-05T14:48:38.057Z,14.50
2019-04-05T14:51:07.453Z,14.50
2019-04-05T14:53:36.855Z,14.50
2019-04-05T14:56:06.363Z,14.50
2019-04-05T14:58:35.733Z,14.50
2019-04-05T15:01:05.087Z,14.40
2019-04-05T15:03:35.019Z,14.40
2019-04-05T15:06:04.521Z,14.40
2019-04-05T15:08:33.979Z,14.40
2019-04-05T15:11:03.632Z,14.40
2019-04-05T15:13:33.067Z,14.40
2019-04-05T15:16:02.393Z,14.40
2019-04-05T15:18:31.820Z,14.30
2019-04-05T15:21:01.296Z,14.30
2019-04-05T15:23:30.692Z,14.20
2019-04-05T15:26:00.809Z,14.10
2019-04-05T15:28:30.251Z,14.10
2019-04-05T15:30:59.702Z,14.10
2019-04-05T15:33:29.075Z,14.00
2019-04-05T15:36:02.241Z,14.00
2019-04-05T15:38:31.853Z,13.90
2019-04-05T15:41:00.624Z,13.90
2019-04-05T15:43:30.031Z,13.80
2019-04-05T15:45:59.483Z,13.80
2019-04-05T15:48:28.938Z,13.80
2019-04-05T15:50:59.265Z,13.80
2019-04-05T15:53:31.892Z,13.70
2019-04-05T15:56:03.891Z,13.70
2019-04-05T15:58:31.527Z,13.60
2019-04-05T16:01:04.181Z,13.60
2019-04-05T16:03:33.327Z,13.60
2019-04-05T16:06:02.707Z,13.60
2019-04-05T16:08:32.103Z,13.60
2019-04-05T16:11:01.578Z,13.50
2019-04-05T16:13:31.013Z,13.50
2019-04-05T16:16:00.623Z,13.50
2019-04-05T16:18:30.016Z,13.50
2019-04-05T16:20:59.497Z,13.40
2019-04-05T16:23:28.915Z,13.40
2019-04-05T16:25:58.335Z,13.40
2019-04-05T16:28:28.202Z,13.30
2019-04-05T16:30:57.630Z,13.30
2019-04-05T16:33:27.058Z,13.30
2019-04-05T16:35:56.422Z,13.30
2019-04-05T16:38:25.869Z,13.20
2019-04-05T16:40:55.473Z,13.10
2019-04-05T16:43:24.828Z,13.00
2019-04-05T16:45:54.189Z,13.00
2019-04-05T16:48:23.623Z,12.90
2019-04-05T16:50:53.054Z,12.80
2019-04-05T16:53:22.435Z,12.80
2019-04-05T16:55:51.892Z,12.80
2019-04-05T16:58:21.260Z,12.70
2019-04-05T17:00:50.742Z,12.70
2019-04-05T17:03:20.181Z,12.60
2019-04-05T17:05:49.524Z,12.50
2019-04-05T17:08:18.882Z,12.50
2019-04-05T17:10:48.334Z,12.50
2019-04-05T17:13:17.723Z,12.40
2019-04-05T17:15:47.198Z,12.30
2019-04-05T17:18:16.632Z,12.30
2019-04-05T17:20:46.047Z,12.30
2019-04-05T17:23:15.444Z,12.20
2019-04-05T17:25:44.925Z,12.20
2019-04-05T17:28:14.351Z,12.20
2019-04-05T17:30:44.486Z,12.20
2019-04-05T17:33:13.909Z,12.10
2019-04-05T17:35:43.264Z,12.10
2019-04-05T17:38:12.667Z,12.10
2019-04-05T17:40:42.143Z,12.10
2019-04-05T17:43:11.444Z,12.10
2019-04-05T17:45:40.822Z,12.10
2019-04-05T17:48:10.257Z,12.10
2019-04-05T17:50:39.719Z,12.00
2019-04-05T17:53:13.359Z,12.00
2019-04-05T17:55:40.460Z,12.00
2019-04-05T17:58:10.484Z,12.00
2019-04-05T18:00:39.843Z,12.00
2019-04-05T18:03:09.527Z,12.00
2019-04-05T18:05:40.509Z,12.00
2019-04-05T18:08:09.909Z,12.00
2019-04-05T18:10:39.289Z,12.00
2019-04-05T18:13:10.102Z,12.00
2019-04-05T18:15:51.853Z,12.00
2019-04-05T18:18:11.204Z,12.00
2019-04-05T18:20:40.634Z,11.90
2019-04-05T18:23:10.141Z,11.90
2019-04-05T18:25:39.622Z,11.90
2019-04-05T18:28:09.069Z,11.80
2019-04-05T18:30:38.408Z,11.80
2019-04-05T18:33:08.324Z,11.80
2019-04-05T18:35:37.735Z,11.80
2019-04-05T18:38:07.112Z,11.80
2019-04-05T18:40:40.339Z,11.80
2019-04-05T18:43:07.855Z,11.70
2019-04-05T18:45:37.415Z,11.70
2019-04-05T18:48:06.945Z,11.70
2019-04-05T18:50:36.268Z,11.70
2019-04-05T18:53:05.666Z,11.70
2019-04-05T18:55:35.098Z,11.80
2019-04-05T18:58:04.551Z,11.80
2019-04-05T19:00:33.913Z,11.80
2019-04-05T19:03:03.721Z,11.80
2019-04-05T19:05:33.321Z,11.90
2019-04-05T19:08:02.712Z,11.90
2019-04-05T19:10:37.148Z,11.90
2019-04-05T19:13:03.223Z,11.90
2019-04-05T19:15:32.658Z,12.00
2019-04-05T19:18:02.023Z,11.90
2019-04-05T19:20:31.388Z,12.00
2019-04-05T19:23:00.920Z,12.00
2019-04-05T19:25:30.386Z,12.00
2019-04-05T19:27:59.812Z,12.00
2019-04-05T19:50:38.348Z,12.10
2019-04-05T19:53:07.820Z,12.10
2019-04-05T19:55:37.536Z,12.10
2019-04-05T19:58:07.009Z,12.10
2019-04-05T20:00:36.435Z,12.10
2019-04-05T20:03:06.316Z,12.10
2019-04-05T20:05:35.834Z,12.10
2019-04-05T20:08:05.336Z,12.10
2019-04-05T20:10:34.768Z,12.10
2019-04-05T20:13:04.166Z,12.20
2019-04-05T20:15:33.678Z,12.10
2019-04-05T20:18:03.447Z,12.10
2019-04-05T20:20:32.943Z,12.20
2019-04-05T20:23:02.564Z,12.20
2019-04-05T20:25:31.999Z,12.20
2019-04-05T20:28:01.386Z,12.20
2019-04-05T20:30:30.764Z,12.20
2019-04-05T20:33:00.191Z,12.20
2019-04-05T20:35:29.521Z,12.20
2019-04-05T20:37:59.114Z,12.20
2019-04-05T20:40:28.861Z,12.20
2019-04-05T20:42:59.906Z,12.20
2019-04-05T20:45:29.512Z,12.20
2019-04-05T20:47:59.029Z,12.20
2019-04-05T20:50:28.490Z,12.20
2019-04-05T20:52:57.920Z,12.30
2019-04-05T20:55:27.336Z,12.30
2019-04-05T20:57:56.657Z,12.20
2019-04-05T21:00:26.028Z,12.20
2019-04-05T21:02:55.583Z,12.30
2019-04-05T21:05:25.812Z,12.20
2019-04-05T21:07:55.317Z,12.20
2019-04-05T21:10:24.725Z,12.20
2019-04-05T21:12:54.051Z,12.20
2019-04-05T21:15:23.465Z,12.20
2019-04-05T21:17:52.883Z,12.10
2019-04-05T21:20:22.336Z,12.10
2019-04-05T21:22:51.804Z,12.10
2019-04-05T21:25:21.310Z,12.10
2019-04-05T21:27:50.721Z,12.10
2019-04-05T21:30:20.150Z,12.10
2019-04-05T21:32:49.556Z,12.10
2019-04-05T21:35:18.935Z,12.10
2019-04-05T21:37:48.387Z,12.10
2019-04-05T21:40:18.139Z,12.10
2019-04-05T21:42:47.623Z,12.10
2019-04-05T21:45:17.021Z,12.00
2019-04-05T21:47:46.414Z,11.90
2019-04-05T21:50:15.826Z,11.90
2019-04-05T21:52:45.236Z,11.90
2019-04-05T21:55:14.732Z,11.80
2019-04-05T21:57:44.062Z,11.80
2019-04-05T22:00:21.082Z,11.80
2019-04-05T22:02:50.517Z,11.80
2019-04-05T22:05:19.899Z,11.80
2019-04-05T22:07:51.450Z,11.70
2019-04-05T22:10:20.441Z,11.70
2019-04-05T22:12:49.765Z,11.70
2019-04-05T22:15:19.191Z,11.60
2019-04-05T22:17:48.689Z,11.50
2019-04-05T22:20:18.060Z,11.50
2019-04-05T22:22:47.498Z,11.50
2019-04-05T22:25:17.005Z,11.50
2019-04-05T22:27:46.346Z,11.50
2019-04-05T22:30:15.799Z,11.50
2019-04-05T22:32:45.218Z,11.50
2019-04-05T22:35:14.643Z,11.50
2019-04-05T22:37:44.169Z,11.50
2019-04-05T22:40:13.633Z,11.40
2019-04-05T22:42:43.397Z,11.40
2019-04-05T22:45:12.954Z,11.30
2019-04-05T22:47:42.336Z,11.40
2019-04-05T22:50:11.773Z,11.30
2019-04-05T22:52:41.219Z,11.40
2019-04-05T22:55:11.990Z,11.40
2019-04-05T22:57:41.474Z,11.40
2019-04-05T23:00:11.321Z,11.40
2019-04-05T23:02:40.770Z,11.40
2019-04-05T23:05:10.470Z,11.40
2019-04-05T23:07:39.944Z,11.50
2019-04-05T23:10:09.513Z,11.50
2019-04-05T23:12:38.910Z,11.50
2019-04-05T23:15:09.392Z,11.60
2019-04-05T23:17:38.817Z,11.50
2019-04-05T23:20:08.478Z,11.60
2019-04-05T23:22:38.165Z,11.60
2019-04-05T23:25:07.668Z,11.60
2019-04-05T23:27:37.152Z,11.60
2019-04-05T23:30:08.651Z,11.60
2019-04-05T23:32:38.003Z,11.60
2019-04-05T23:35:07.796Z,11.70
2019-04-05T23:37:37.299Z,11.70
2019-04-05T23:40:06.952Z,11.70
2019-04-05T23:42:36.392Z,11.70
2019-04-05T23:45:06.844Z,11.70
2019-04-05T23:47:36.247Z,11.70
2019-04-05T23:50:06.191Z,11.70
2019-04-05T23:52:35.690Z,11.70
2019-04-05T23:55:05.399Z,11.70
2019-04-05T23:57:34.806Z,11.70
